createdAt,value
2023-09-06T00:00:52.606Z,5.97
2023-09-06T00:03:19.817Z,5.30
2023-09-06T00:05:47.311Z,5.70
2023-09-06T00:08:16.168Z,5.27
2023-09-06T00:10:43.975Z,5.63
2023-09-06T00:13:13.137Z,5.50
2023-09-06T00:15:40.085Z,5.67
2023-09-06T00:18:07.919Z,5.80
2023-09-06T00:20:36.173Z,5.10
2023-09-06T00:23:05.892Z,5.37
2023-09-06T00:25:33.851Z,5.47
2023-09-06T00:28:04.920Z,5.97
2023-09-06T00:30:32.351Z,5.77
2023-09-06T00:33:00.694Z,5.60
2023-09-06T00:35:28.148Z,5.70
2023-09-06T00:37:55.712Z,5.00
2023-09-06T00:40:23.724Z,5.03
2023-09-06T00:43:01.825Z,5.17
2023-09-06T00:45:31.937Z,5.00
2023-09-06T00:48:00.014Z,5.23
2023-09-06T00:50:29.869Z,5.50
2023-09-06T00:52:57.816Z,5.83
2023-09-06T00:55:24.714Z,5.27
2023-09-06T00:57:51.974Z,5.17
2023-09-06T01:00:19.174Z,5.13
2023-09-06T01:02:46.837Z,5.37
2023-09-06T01:05:21.919Z,5.03
2023-09-06T01:08:22.249Z,5.37
2023-09-06T01:10:52.051Z,6.10
2023-09-06T01:13:19.115Z,5.57
2023-09-06T01:15:46.884Z,5.70
2023-09-06T01:18:15.274Z,5.80
2023-09-06T01:20:54.157Z,5.93
2023-09-06T01:23:41.236Z,6.17
2023-09-06T01:26:08.460Z,5.70
2023-09-06T01:28:35.837Z,6.47
2023-09-06T01:31:03.377Z,6.40
2023-09-06T01:33:31.010Z,6.33
2023-09-06T01:35:58.521Z,6.27
2023-09-06T01:38:25.805Z,6.43
2023-09-06T01:40:53.753Z,5.90
2023-09-06T01:43:20.562Z,6.30
2023-09-06T01:45:53.469Z,6.03
2023-09-06T01:48:20.490Z,6.00
2023-09-06T01:50:48.320Z,5.60
2023-09-06T01:53:15.426Z,5.27
2023-09-06T01:55:43.709Z,6.10
2023-09-06T01:58:11.447Z,5.70
2023-09-06T02:00:39.233Z,5.83
2023-09-06T02:03:08.125Z,5.00
2023-09-06T02:05:36.378Z,5.90
2023-09-06T02:08:06.075Z,5.40
2023-09-06T02:10:32.848Z,5.20
2023-09-06T02:13:00.144Z,5.50
2023-09-06T02:15:27.083Z,5.50
2023-09-06T02:17:53.846Z,4.97
2023-09-06T02:20:23.638Z,5.40
2023-09-06T02:22:53.104Z,5.90
2023-09-06T02:25:23.214Z,6.27
2023-09-06T02:27:50.495Z,6.43
2023-09-06T02:30:18.348Z,5.97
2023-09-06T02:32:45.201Z,7.53
2023-09-06T02:35:12.288Z,6.57
2023-09-06T02:37:39.080Z,6.83
2023-09-06T02:40:24.441Z,6.80
2023-09-06T02:42:52.552Z,6.57
2023-09-06T02:45:19.716Z,6.83
2023-09-06T02:47:51.228Z,6.87
2023-09-06T02:50:24.315Z,6.40
2023-09-06T02:52:54.329Z,6.60
2023-09-06T02:55:21.752Z,7.23
2023-09-06T02:57:50.691Z,7.17
2023-09-06T03:00:27.353Z,6.50
2023-09-06T03:03:08.543Z,6.77
2023-09-06T03:05:44.031Z,6.43
2023-09-06T03:08:14.792Z,6.60
2023-09-06T03:10:42.353Z,6.63
2023-09-06T03:13:10.378Z,6.10
2023-09-06T03:15:37.793Z,6.27
2023-09-06T03:18:06.353Z,6.33
2023-09-06T03:20:33.647Z,6.63
2023-09-06T03:23:20.776Z,6.60
2023-09-06T03:25:49.703Z,6.40
2023-09-06T03:28:19.733Z,6.57
2023-09-06T03:30:47.095Z,6.37
2023-09-06T03:33:14.063Z,6.40
2023-09-06T03:35:42.878Z,6.20
2023-09-06T03:38:09.934Z,5.97
2023-09-06T03:40:37.237Z,6.60
2023-09-06T03:43:16.682Z,6.37
2023-09-06T03:45:52.052Z,6.27
2023-09-06T03:48:21.826Z,6.50
2023-09-06T03:50:53.249Z,7.20
2023-09-06T03:53:20.203Z,7.20
2023-09-06T03:55:51.153Z,7.07
2023-09-06T03:58:18.024Z,7.17
2023-09-06T04:00:45.911Z,7.23
2023-09-06T04:03:15.487Z,6.63
2023-09-06T04:05:45.229Z,6.57
2023-09-06T04:08:12.686Z,6.57
2023-09-06T04:10:39.989Z,7.30
2023-09-06T04:13:12.089Z,6.97
2023-09-06T04:15:39.860Z,7.00
2023-09-06T04:18:08.517Z,7.67
2023-09-06T04:24:56.023Z,6.67
2023-09-06T04:27:22.794Z,7.83
2023-09-06T04:29:49.456Z,6.50
2023-09-06T04:32:18.447Z,6.87
2023-09-06T04:34:45.650Z,7.53
2023-09-06T04:37:14.251Z,8.13
2023-09-06T04:39:44.550Z,7.13
2023-09-06T04:42:18.015Z,6.27
2023-09-06T04:44:45.771Z,6.80
2023-09-06T04:47:16.224Z,7.17
2023-09-06T04:49:47.034Z,6.63
2023-09-06T04:52:13.749Z,6.70
2023-09-06T04:54:40.551Z,7.17
2023-09-06T04:57:09.373Z,6.93
2023-09-06T04:59:37.771Z,7.10
2023-09-06T05:02:04.771Z,7.27
2023-09-06T05:04:31.837Z,7.93
2023-09-06T05:06:58.524Z,7.67
2023-09-06T05:09:25.224Z,7.47
2023-09-06T05:11:51.919Z,7.10
2023-09-06T05:14:20.109Z,7.43
2023-09-06T05:16:47.052Z,6.50
2023-09-06T05:19:13.879Z,6.93
2023-09-06T05:21:40.986Z,6.63
2023-09-06T05:24:07.827Z,8.20
2023-09-06T05:26:34.811Z,7.40
2023-09-06T05:29:01.550Z,7.80
2023-09-06T05:31:28.416Z,7.57
2023-09-06T05:33:55.284Z,7.57
2023-09-06T05:36:22.465Z,7.27
2023-09-06T05:38:49.190Z,7.30
2023-09-06T05:41:16.660Z,7.43
2023-09-06T05:43:43.593Z,7.70
2023-09-06T05:46:29.674Z,6.87
2023-09-06T05:48:56.994Z,7.53
2023-09-06T05:51:23.801Z,7.30
2023-09-06T05:53:50.559Z,7.13
2023-09-06T05:56:17.514Z,7.63
2023-09-06T05:58:44.288Z,7.20
2023-09-06T06:01:12.848Z,7.57
2023-09-06T06:03:40.562Z,7.17
2023-09-06T06:06:11.909Z,7.40
2023-09-06T06:08:39.110Z,7.20
2023-09-06T06:11:06.213Z,8.03
2023-09-06T06:13:33.406Z,7.50
2023-09-06T06:16:00.356Z,7.10
2023-09-06T06:18:27.745Z,7.93
2023-09-06T06:20:55.975Z,7.33
2023-09-06T06:23:22.800Z,7.50
2023-09-06T06:25:49.589Z,7.63
2023-09-06T06:28:16.944Z,8.50
2023-09-06T06:30:43.984Z,8.03
2023-09-06T06:33:11.193Z,7.33
2023-09-06T06:35:38.177Z,7.97
2023-09-06T06:38:05.652Z,7.50
2023-09-06T06:40:36.834Z,7.47
2023-09-06T06:43:03.904Z,7.73
2023-09-06T06:45:30.632Z,7.23
2023-09-06T06:47:57.478Z,7.23
2023-09-06T06:50:24.553Z,6.83
2023-09-06T06:52:51.347Z,7.87
2023-09-06T06:55:18.413Z,6.93
2023-09-06T06:57:45.796Z,6.87
2023-09-06T07:00:13.038Z,7.40
2023-09-06T07:02:40.080Z,6.70
2023-09-06T07:05:07.238Z,6.53
2023-09-06T07:07:34.137Z,6.83
2023-09-06T07:10:00.922Z,6.27
2023-09-06T07:12:27.762Z,6.45
2023-09-06T07:14:55.262Z,6.77
2023-09-06T07:17:22.321Z,6.10
2023-09-06T07:19:49.197Z,6.60
2023-09-06T07:22:16.213Z,6.75
2023-09-06T07:24:42.968Z,5.70
2023-09-06T07:27:09.728Z,6.10
2023-09-06T07:29:36.521Z,5.22
2023-09-06T07:32:04.397Z,4.97
2023-09-06T07:34:31.749Z,4.90
2023-09-06T07:36:58.931Z,5.03
2023-09-06T07:39:25.682Z,4.20
2023-09-06T07:41:54.429Z,4.30
2023-09-06T07:44:21.150Z,4.00
2023-09-06T07:46:49.873Z,4.00
2023-09-06T07:51:44.775Z,3.70
2023-09-06T07:59:10.021Z,3.80
2023-09-06T08:01:37.271Z,4.10
2023-09-06T08:04:04.427Z,3.80
2023-09-06T08:08:59.499Z,3.70
2023-09-06T08:16:20.484Z,3.45
2023-09-06T08:18:48.260Z,3.28
2023-09-06T08:21:17.151Z,3.80
2023-09-06T08:23:44.808Z,3.55
2023-09-06T08:26:12.791Z,3.28
2023-09-06T08:28:39.919Z,3.58
2023-09-06T08:31:07.234Z,3.28
2023-09-06T08:33:34.758Z,3.80
2023-09-06T08:36:01.975Z,3.33
2023-09-06T08:38:29.328Z,2.97
2023-09-06T08:40:56.329Z,3.53
2023-09-06T08:43:24.623Z,3.28
2023-09-06T08:45:52.898Z,3.70
2023-09-06T08:48:20.019Z,4.10
2023-09-06T08:50:47.716Z,3.70
2023-09-06T08:53:17.496Z,3.53
2023-09-06T08:55:45.615Z,3.80
2023-09-06T08:58:12.805Z,3.97
2023-09-06T09:03:06.963Z,3.70
2023-09-06T09:05:33.934Z,3.70
2023-09-06T09:18:01.974Z,3.90
2023-09-06T10:53:37.668Z,3.20
2023-09-06T10:56:06.538Z,3.30
2023-09-06T10:58:38.358Z,3.50
2023-09-06T11:01:14.142Z,3.35
2023-09-06T11:03:56.041Z,3.00
2023-09-06T11:06:25.386Z,3.40
2023-09-06T11:08:54.224Z,3.25
2023-09-06T11:11:22.146Z,3.08
2023-09-06T11:13:49.004Z,3.67
2023-09-06T11:16:19.688Z,3.60
2023-09-06T11:18:48.455Z,3.50
2023-09-06T11:21:24.214Z,2.95
2023-09-06T11:23:53.491Z,3.72
2023-09-06T11:26:20.642Z,3.30
2023-09-06T11:28:48.836Z,3.53
2023-09-06T11:31:30.605Z,3.17
2023-09-06T11:34:05.443Z,3.35
2023-09-06T11:36:34.941Z,2.90
2023-09-06T11:39:20.016Z,3.13
2023-09-06T11:41:48.854Z,3.03
2023-09-06T11:44:18.880Z,3.45
2023-09-06T11:46:48.210Z,3.33
2023-09-06T11:49:16.777Z,2.80
2023-09-06T11:51:45.126Z,3.30
2023-09-06T11:54:13.210Z,2.67
2023-09-06T11:56:44.150Z,2.60
2023-09-06T11:59:14.109Z,2.58
2023-09-06T12:01:42.034Z,2.67
2023-09-06T12:04:11.574Z,3.05
2023-09-06T12:06:42.715Z,2.78
2023-09-06T12:09:13.560Z,3.30
2023-09-06T12:11:41.004Z,2.80
2023-09-06T12:14:12.529Z,2.97
2023-09-06T12:16:40.633Z,2.72
2023-09-06T12:19:14.942Z,2.45
2023-09-06T12:21:41.928Z,2.70
2023-09-06T12:24:08.871Z,2.58
2023-09-06T12:26:35.744Z,2.42
2023-09-06T12:29:08.579Z,2.58
2023-09-06T12:31:35.781Z,2.58
2023-09-06T12:34:05.043Z,2.13
2023-09-06T12:36:36.493Z,2.90
2023-09-06T12:39:07.698Z,2.42
2023-09-06T12:41:34.798Z,2.20
2023-09-06T12:44:01.876Z,2.10
2023-09-06T12:46:28.958Z,2.40
2023-09-06T12:48:56.079Z,2.30
2023-09-06T12:51:22.896Z,2.03
2023-09-06T12:53:51.013Z,1.90
2023-09-06T12:56:20.065Z,2.00
2023-09-06T12:58:47.023Z,1.88
2023-09-06T13:01:15.816Z,2.30
2023-09-06T13:03:44.269Z,2.17
2023-09-06T13:06:11.219Z,1.95
2023-09-06T13:08:38.084Z,2.03
2023-09-06T13:11:05.077Z,1.70
2023-09-06T13:13:31.852Z,1.70
2023-09-06T13:15:58.961Z,1.48
2023-09-06T13:18:26.557Z,1.80
2023-09-06T13:20:58.416Z,1.73
2023-09-06T13:23:25.258Z,1.75
2023-09-06T13:25:52.148Z,1.65
2023-09-06T13:28:18.981Z,2.00
2023-09-06T13:30:45.777Z,1.98
2023-09-06T13:33:12.769Z,1.98
2023-09-06T13:35:39.555Z,1.77
2023-09-06T13:38:08.519Z,2.05
2023-09-06T13:40:35.878Z,1.90
2023-09-06T13:43:03.344Z,1.90
2023-09-06T13:45:30.836Z,1.55
2023-09-06T13:47:58.843Z,1.73
2023-09-06T13:50:25.803Z,1.90
2023-09-06T13:52:52.692Z,1.50
2023-09-06T13:55:19.654Z,1.60
2023-09-06T13:57:46.560Z,1.63
2023-09-06T14:00:13.930Z,1.90
2023-09-06T14:02:41.097Z,1.80
2023-09-06T14:05:08.578Z,1.92
2023-09-06T14:07:35.445Z,1.83
2023-09-06T14:10:02.352Z,2.15
2023-09-06T14:12:29.900Z,2.00
2023-09-06T14:14:57.923Z,1.92
2023-09-06T14:17:25.051Z,1.70
2023-09-06T14:19:52.167Z,1.88
2023-09-06T14:22:18.984Z,1.92
2023-09-06T14:24:45.862Z,1.63
2023-09-06T14:27:14.749Z,2.00
2023-09-06T14:29:42.162Z,1.75
2023-09-06T14:32:09.242Z,1.95
2023-09-06T14:34:36.080Z,2.10
2023-09-06T14:37:04.787Z,1.67
2023-09-06T14:39:33.664Z,1.60
2023-09-06T14:42:00.568Z,1.90
2023-09-06T14:44:27.566Z,2.00
2023-09-06T14:46:54.570Z,1.75
2023-09-06T14:49:21.695Z,1.75
2023-09-06T14:51:48.455Z,1.67
2023-09-06T14:54:15.198Z,1.70
2023-09-06T14:56:42.351Z,1.63
2023-09-06T14:59:09.106Z,2.17
2023-09-06T15:01:39.742Z,2.00
2023-09-06T15:04:07.454Z,1.70
2023-09-06T15:06:52.369Z,1.70
2023-09-06T15:09:22.025Z,1.85
2023-09-06T15:11:49.889Z,1.98
2023-09-06T15:14:17.140Z,2.25
2023-09-06T15:16:45.041Z,1.70
2023-09-06T15:19:11.923Z,1.98
2023-09-06T15:21:43.391Z,1.90
2023-09-06T15:24:10.653Z,1.98
2023-09-06T15:26:38.224Z,1.98
2023-09-06T15:29:05.063Z,1.90
2023-09-06T15:31:32.240Z,2.17
2023-09-06T15:33:59.465Z,1.88
2023-09-06T15:36:31.206Z,1.50
2023-09-06T15:38:58.185Z,1.88
2023-09-06T15:41:25.136Z,1.60
2023-09-06T15:43:51.884Z,2.10
2023-09-06T15:46:19.349Z,1.90
2023-09-06T15:48:46.290Z,2.13
2023-09-06T15:51:13.356Z,2.65
2023-09-06T15:53:40.352Z,4.90
2023-09-06T15:56:07.304Z,4.55
2023-09-06T15:58:34.050Z,3.47
2023-09-06T16:01:05.276Z,3.33
2023-09-06T16:03:33.047Z,4.28
2023-09-06T16:06:00.012Z,1.92
2023-09-06T16:08:26.969Z,2.13
2023-09-06T16:10:53.864Z,1.70
2023-09-06T16:13:20.987Z,2.15
2023-09-06T16:15:47.921Z,1.98
2023-09-06T16:18:15.368Z,3.08
2023-09-06T16:20:43.629Z,3.38
2023-09-06T16:23:11.127Z,4.75
2023-09-06T16:25:38.292Z,3.53
2023-09-06T16:28:06.327Z,2.33
2023-09-06T16:30:37.448Z,2.83
2023-09-06T16:33:04.725Z,3.45
2023-09-06T16:35:32.891Z,2.85
2023-09-06T16:38:01.571Z,2.40
2023-09-06T16:40:28.480Z,2.20
2023-09-06T16:42:55.998Z,2.60
2023-09-06T16:45:23.035Z,2.42
2023-09-06T16:47:51.852Z,2.00
2023-09-06T16:50:19.253Z,2.08
2023-09-06T16:52:46.420Z,2.10
2023-09-06T16:55:13.447Z,1.98
2023-09-06T16:57:40.302Z,1.75
2023-09-06T17:00:09.266Z,1.95
2023-09-06T17:02:39.132Z,1.55
2023-09-06T17:05:06.773Z,1.88
2023-09-06T17:07:38.792Z,1.85
2023-09-06T17:10:09.318Z,1.63
2023-09-06T17:12:37.098Z,1.88
2023-09-06T17:15:17.068Z,1.85
2023-09-06T17:17:44.335Z,1.83
2023-09-06T17:20:13.252Z,1.90
2023-09-06T17:22:40.028Z,1.67
2023-09-06T17:25:10.207Z,2.00
2023-09-06T17:27:37.797Z,1.55
2023-09-06T17:30:11.638Z,2.03
2023-09-06T17:32:42.050Z,2.00
2023-09-06T17:35:11.379Z,1.50
2023-09-06T17:37:38.217Z,1.75
2023-09-06T17:40:11.890Z,1.70
2023-09-06T17:42:39.854Z,1.83
2023-09-06T17:45:13.507Z,2.03
2023-09-06T17:47:43.050Z,2.10
2023-09-06T17:50:10.640Z,2.15
2023-09-06T17:52:40.513Z,1.60
2023-09-06T17:55:07.946Z,2.40
2023-09-06T17:57:35.494Z,2.05
2023-09-06T18:00:02.703Z,1.75
2023-09-06T18:02:31.315Z,2.03
2023-09-06T18:04:58.400Z,1.70
2023-09-06T18:07:25.337Z,2.15
2023-09-06T18:09:52.518Z,1.85
2023-09-06T18:12:19.362Z,2.20
2023-09-06T18:14:49.865Z,1.98
2023-09-06T18:17:17.101Z,2.20
2023-09-06T18:19:44.021Z,2.28
2023-09-06T18:22:12.968Z,2.30
2023-09-06T18:24:41.512Z,2.20
2023-09-06T18:27:10.592Z,2.17
2023-09-06T18:29:38.133Z,2.20
2023-09-06T18:32:07.539Z,2.70
2023-09-06T18:34:34.528Z,3.00
2023-09-06T18:37:01.362Z,3.15
2023-09-06T18:39:28.151Z,3.00
2023-09-06T18:41:54.978Z,3.15
2023-09-06T18:44:21.741Z,3.20
2023-09-06T18:46:48.528Z,3.05
2023-09-06T18:49:15.333Z,2.83
2023-09-06T18:51:42.068Z,2.67
2023-09-06T18:54:08.876Z,2.58
2023-09-06T18:56:36.428Z,3.17
2023-09-06T18:59:03.407Z,3.05
2023-09-06T19:01:30.153Z,2.78
2023-09-06T19:03:57.107Z,3.00
2023-09-06T19:06:25.328Z,2.90
2023-09-06T19:08:52.080Z,2.40
2023-09-06T19:11:19.058Z,2.60
2023-09-06T19:13:45.857Z,3.00
2023-09-06T19:16:12.621Z,2.83
2023-09-06T19:18:39.808Z,2.60
2023-09-06T19:21:06.658Z,2.78
2023-09-06T19:23:33.603Z,2.95
2023-09-06T19:26:03.011Z,2.80
2023-09-06T19:28:30.867Z,3.47
2023-09-06T19:31:00.274Z,3.15
2023-09-06T19:33:28.043Z,2.85
2023-09-06T19:35:56.056Z,3.60
2023-09-06T19:38:26.058Z,2.88
2023-09-06T19:40:54.922Z,3.45
2023-09-06T19:43:22.673Z,3.35
2023-09-06T19:45:56.761Z,3.38
2023-09-06T19:48:24.407Z,3.42
2023-09-06T19:50:51.763Z,3.25
2023-09-06T19:53:18.904Z,2.80
2023-09-06T19:55:48.992Z,3.25
2023-09-06T19:58:15.854Z,3.38
2023-09-06T20:00:42.604Z,3.28
2023-09-06T20:03:10.709Z,3.30
2023-09-06T20:05:37.982Z,3.45
2023-09-06T20:08:05.092Z,3.50
2023-09-06T20:10:31.887Z,3.47
2023-09-06T20:12:58.654Z,3.65
2023-09-06T20:15:29.392Z,3.65
2023-09-06T20:17:56.381Z,3.72
2023-09-06T20:20:23.247Z,3.80
2023-09-06T20:22:50.006Z,4.05
2023-09-06T20:25:16.834Z,4.20
2023-09-06T20:27:43.540Z,4.63
2023-09-06T20:30:12.029Z,4.53
2023-09-06T20:32:39.034Z,4.47
2023-09-06T20:35:06.092Z,4.72
2023-09-06T20:37:32.922Z,4.88
2023-09-06T20:39:59.873Z,4.63
2023-09-06T20:42:27.461Z,4.88
2023-09-06T20:44:54.269Z,5.00
2023-09-06T20:47:21.179Z,5.10
2023-09-06T20:49:48.730Z,5.13
2023-09-06T20:52:16.436Z,5.15
2023-09-06T20:54:43.481Z,4.90
2023-09-06T20:57:10.229Z,5.28
2023-09-06T20:59:36.959Z,5.13
2023-09-06T21:02:03.881Z,5.30
2023-09-06T21:04:30.798Z,5.20
2023-09-06T21:06:57.672Z,4.77
2023-09-06T21:09:24.383Z,4.73
2023-09-06T21:11:51.958Z,4.07
2023-09-06T21:14:20.184Z,4.80
2023-09-06T21:16:47.513Z,4.77
2023-09-06T21:19:14.355Z,4.20
2023-09-06T21:21:41.742Z,4.47
2023-09-06T21:24:09.781Z,4.57
2023-09-06T21:26:39.919Z,4.20
2023-09-06T21:29:18.092Z,4.20
2023-09-06T21:31:49.026Z,4.70
2023-09-06T21:34:16.027Z,5.10
2023-09-06T21:36:42.890Z,5.03
2023-09-06T21:39:10.813Z,4.90
2023-09-06T21:41:37.588Z,4.90
2023-09-06T21:44:04.687Z,4.60
2023-09-06T21:46:31.526Z,5.20
2023-09-06T21:48:58.277Z,4.93
2023-09-06T21:51:25.034Z,4.27
2023-09-06T21:53:51.753Z,5.07
2023-09-06T21:56:18.753Z,4.80
2023-09-06T21:58:45.634Z,5.10
2023-09-06T22:01:12.943Z,5.20
2023-09-06T22:03:39.758Z,5.20
2023-09-06T22:06:06.979Z,4.80
2023-09-06T22:08:33.898Z,5.00
2023-09-06T22:11:00.874Z,5.50
2023-09-06T22:13:27.628Z,4.93
2023-09-06T22:15:55.682Z,4.50
2023-09-06T22:18:22.467Z,5.17
2023-09-06T22:20:49.284Z,5.40
2023-09-06T22:23:18.212Z,4.83
2023-09-06T22:25:45.141Z,5.10
2023-09-06T22:28:13.122Z,5.47
2023-09-06T22:30:43.708Z,4.63
2023-09-06T22:33:10.602Z,4.80
2023-09-06T22:35:37.727Z,5.00
2023-09-06T22:38:04.549Z,5.27
2023-09-06T22:40:31.260Z,4.90
2023-09-06T22:42:58.077Z,5.13
2023-09-06T22:45:24.830Z,5.07
2023-09-06T22:47:51.645Z,5.30
2023-09-06T22:50:18.561Z,5.10
2023-09-06T22:52:45.478Z,5.30
2023-09-06T22:55:12.426Z,4.83
2023-09-06T22:57:39.181Z,4.97
2023-09-06T23:00:08.810Z,5.23
2023-09-06T23:02:35.941Z,5.33
2023-09-06T23:05:02.867Z,5.07
2023-09-06T23:07:29.588Z,5.27
2023-09-06T23:09:56.502Z,5.47
2023-09-06T23:12:23.363Z,5.17
2023-09-06T23:14:50.363Z,4.90
2023-09-06T23:17:22.766Z,5.03
2023-09-06T23:19:54.089Z,5.17
2023-09-06T23:22:23.662Z,4.73
2023-09-06T23:24:53.276Z,4.80
2023-09-06T23:27:24.294Z,5.70
2023-09-06T23:29:55.922Z,5.33
2023-09-06T23:32:26.275Z,5.33
2023-09-06T23:34:55.274Z,5.50
2023-09-06T23:37:22.405Z,5.30
2023-09-06T23:39:50.006Z,5.47
2023-09-06T23:42:18.202Z,5.43
2023-09-06T23:44:46.984Z,5.33
2023-09-06T23:47:14.765Z,6.70
2023-09-06T23:49:43.946Z,5.73
2023-09-06T23:52:11.228Z,6.03
2023-09-06T23:54:47.313Z,5.27
2023-09-06T23:57:16.227Z,5.27
2023-09-06T23:59:42.963Z,5.83
